Sea Amore — H9OC — position and weather

sailwx.info

Track history (hours):
 
Tides and Currents Weather Stations Pressure Air Temp Water Temp Dewpoint Dewpoint Depression Visibility Wind Speed Wind Dir Waves Ship Positions

Sea Amore

Last reported at 2014-Aug-18 09:29 UTC. Time now 2014-Aug-21 16:05 UTC.
Position N 37°06' E 026°30'.

Length 148 m; draft 8.3 m.

Type: Cargo ship. MMSI: 357019000.

Date/timePositionNaut miles runAvg speedWind from/ knotsBaromVisibWave heightAir tempDewpointWater temp
2014-Aug-18 09:29N 37°06' E 026°30'1111.8
2014-Aug-18 08:33N 37°14' E 026°20'1111.5
2014-Aug-18 07:33N 37°21' E 026°10'1211.6
2014-Aug-18 06:32N 37°29' E 025°59'24010.4
2014-Aug-17 07:20N 40°53' E 028°43'910.9
2014-Aug-17 06:29N 40°57' E 028°55'2 2.4
2014-Aug-17 05:33N 40°58' E 028°56'0 0.0
2014-Aug-17 04:33N 40°58' E 028°57'0 0.0
2014-Aug-17 03:31N 40°58' E 028°57'0 0.0
2014-Aug-17 02:33N 40°58' E 028°57'0 0.0
2014-Aug-17 01:28N 40°58' E 028°57'0 0.0
2014-Aug-17 00:33N 40°58' E 028°57'0 0.0
2014-Aug-16 23:26N 40°58' E 028°57'0 0.0
2014-Aug-16 22:33N 40°58' E 028°57'0 0.0
2014-Aug-16 21:33N 40°58' E 028°57'0 0.1
2014-Aug-16 20:32N 40°58' E 028°56'0 0.0
2014-Aug-16 19:33N 40°58' E 028°56'0 0.0
2014-Aug-16 18:33N 40°58' E 028°56'0 0.1
2014-Aug-16 17:33N 40°58' E 028°57'9 7.1
2014-Aug-16 16:16N 41°06' E 029°04'11 6.2
2014-Aug-16 14:33N 41°16' E 029°02'0 0.0
2014-Aug-16 12:32N 41°16' E 029°02'0 0.0
2014-Aug-16 11:32N 41°16' E 029°02'0 0.0
2014-Aug-16 10:05N 41°16' E 029°02'0 0.0
2014-Aug-16 09:32N 41°16' E 029°02'0 0.0
2014-Aug-16 08:32N 41°16' E 029°02'0 0.0
2014-Aug-16 07:32N 41°16' E 029°02'  
2014-Aug-10 23:21N 46°06' E 030°52'3210.5
2014-Aug-10 20:18N 46°35' E 031°12'912.0
2014-Aug-10 19:33N 46°35' E 031°25'1111.1
2014-Aug-10 18:33N 46°36' E 031°41'1111.1
2014-Aug-10 17:33N 46°40' E 031°56'1010.3
2014-Aug-10 16:33N 46°50' E 031°56'7 6.5
2014-Aug-10 15:32N 46°56' E 032°01'0 0.1
2014-Aug-10 14:32N 46°56' E 032°01'1 0.6
2014-Aug-10 13:32N 46°57' E 032°01'0 0.0
2014-Aug-10 12:32N 46°57' E 032°01'0 0.0
2014-Aug-10 11:32N 46°57' E 032°01'0 0.0
2014-Aug-10 10:32N 46°57' E 032°01'0 0.0
2014-Aug-10 09:32N 46°57' E 032°01'0 0.0
2014-Aug-10 08:32N 46°57' E 032°01'0 0.0
2014-Aug-10 07:32N 46°57' E 032°01'0 0.0
2014-Aug-10 06:32N 46°57' E 032°01'0 0.0
2014-Aug-10 05:32N 46°57' E 032°01'0 0.0
2014-Aug-10 04:32N 46°57' E 032°01'0 0.0
2014-Aug-10 03:31N 46°57' E 032°01'0 0.0
2014-Aug-10 02:31N 46°57' E 032°01'0 0.0
2014-Aug-10 01:31N 46°57' E 032°01'0 0.0
2014-Aug-10 00:31N 46°57' E 032°01'0 0.0
2014-Aug-09 23:31N 46°57' E 032°01'0 0.0
2014-Aug-09 22:31N 46°57' E 032°01'0 0.0
2014-Aug-09 21:31N 46°57' E 032°01'0 0.0
2014-Aug-09 20:31N 46°57' E 032°01'0 0.0
2014-Aug-09 19:31N 46°57' E 032°01'0 0.0
2014-Aug-09 18:31N 46°57' E 032°01'0 0.0
2014-Aug-09 17:31N 46°57' E 032°01'0 0.0
2014-Aug-09 16:31N 46°57' E 032°01'0 0.0
2014-Aug-09 15:31N 46°57' E 032°01'0 0.0
2014-Aug-09 14:31N 46°57' E 032°01'0 0.0
2014-Aug-09 13:31N 46°57' E 032°01'0 0.0
2014-Aug-09 12:31N 46°57' E 032°01'0 0.0
2014-Aug-09 11:31N 46°57' E 032°01'0 0.0
2014-Aug-09 10:31N 46°57' E 032°01'0 0.0
2014-Aug-09 09:31N 46°57' E 032°01'0 0.0
2014-Aug-09 08:28N 46°57' E 032°01'0 0.0
2014-Aug-09 07:31N 46°57' E 032°01'0 0.0
2014-Aug-09 06:31N 46°57' E 032°01'0 0.0
2014-Aug-09 05:31N 46°57' E 032°01'0 0.0
2014-Aug-09 04:31N 46°57' E 032°01'0 0.0
2014-Aug-09 03:31N 46°57' E 032°01'0 0.0
2014-Aug-09 02:31N 46°57' E 032°01'0 0.0
2014-Aug-09 01:31N 46°57' E 032°01'0 0.0
2014-Aug-09 00:31N 46°57' E 032°01'0 0.0
2014-Aug-08 23:31N 46°57' E 032°01'0 0.0
2014-Aug-08 22:31N 46°57' E 032°01'0 0.0
2014-Aug-08 21:31N 46°57' E 032°01'0 0.0
2014-Aug-08 20:31N 46°57' E 032°01'0 0.0
2014-Aug-08 19:31N 46°57' E 032°01'0 0.0
2014-Aug-08 18:31N 46°57' E 032°01'0 0.0
2014-Aug-08 17:31N 46°57' E 032°01'0 0.0
2014-Aug-08 16:34N 46°57' E 032°01'0 0.0
2014-Aug-08 15:33N 46°57' E 032°01'0 0.0
2014-Aug-08 14:33N 46°57' E 032°01'0 0.0
2014-Aug-08 13:33N 46°57' E 032°01'0 0.0
2014-Aug-08 12:33N 46°57' E 032°01'0 0.0
2014-Aug-08 11:33N 46°57' E 032°01'0 0.0
2014-Aug-08 10:33N 46°57' E 032°01'0 0.0
2014-Aug-08 09:33N 46°57' E 032°01'  
Track history (hours):
 
Tides and Currents Weather Stations Pressure Air Temp Water Temp Dewpoint Dewpoint Depression Visibility Wind Speed Wind Dir Waves Ship Positions

Sea Amore

Last reported at 2014-Aug-18 09:29 UTC. Time now 2014-Aug-21 16:05 UTC.
Position N 37°06' E 026°30'.

Length 148 m; draft 8.3 m.

Type: Cargo ship. MMSI: 357019000.

Date/timePositionNaut miles runAvg speedWind from/ knotsBaromVisibWave heightAir tempDewpointWater temp
2014-Aug-18 09:29N 37°06' E 026°30'1111.8
2014-Aug-18 08:33N 37°14' E 026°20'1111.5
2014-Aug-18 07:33N 37°21' E 026°10'1211.6
2014-Aug-18 06:32N 37°29' E 025°59'24010.4
2014-Aug-17 07:20N 40°53' E 028°43'910.9
2014-Aug-17 06:29N 40°57' E 028°55'2 2.4
2014-Aug-17 05:33N 40°58' E 028°56'0 0.0
2014-Aug-17 04:33N 40°58' E 028°57'0 0.0
2014-Aug-17 03:31N 40°58' E 028°57'0 0.0
2014-Aug-17 02:33N 40°58' E 028°57'0 0.0
2014-Aug-17 01:28N 40°58' E 028°57'0 0.0
2014-Aug-17 00:33N 40°58' E 028°57'0 0.0
2014-Aug-16 23:26N 40°58' E 028°57'0 0.0
2014-Aug-16 22:33N 40°58' E 028°57'0 0.0
2014-Aug-16 21:33N 40°58' E 028°57'0 0.1
2014-Aug-16 20:32N 40°58' E 028°56'0 0.0
2014-Aug-16 19:33N 40°58' E 028°56'0 0.0
2014-Aug-16 18:33N 40°58' E 028°56'0 0.1
2014-Aug-16 17:33N 40°58' E 028°57'9 7.1
2014-Aug-16 16:16N 41°06' E 029°04'11 6.2
2014-Aug-16 14:33N 41°16' E 029°02'0 0.0
2014-Aug-16 12:32N 41°16' E 029°02'0 0.0
2014-Aug-16 11:32N 41°16' E 029°02'0 0.0
2014-Aug-16 10:05N 41°16' E 029°02'0 0.0
2014-Aug-16 09:32N 41°16' E 029°02'0 0.0
2014-Aug-16 08:32N 41°16' E 029°02'0 0.0
2014-Aug-16 07:32N 41°16' E 029°02'  
2014-Aug-10 23:21N 46°06' E 030°52'3210.5
2014-Aug-10 20:18N 46°35' E 031°12'912.0
2014-Aug-10 19:33N 46°35' E 031°25'1111.1
2014-Aug-10 18:33N 46°36' E 031°41'1111.1
2014-Aug-10 17:33N 46°40' E 031°56'1010.3
2014-Aug-10 16:33N 46°50' E 031°56'7 6.5
2014-Aug-10 15:32N 46°56' E 032°01'0 0.1
2014-Aug-10 14:32N 46°56' E 032°01'1 0.6
2014-Aug-10 13:32N 46°57' E 032°01'0 0.0
2014-Aug-10 12:32N 46°57' E 032°01'0 0.0
2014-Aug-10 11:32N 46°57' E 032°01'0 0.0
2014-Aug-10 10:32N 46°57' E 032°01'0 0.0
2014-Aug-10 09:32N 46°57' E 032°01'0 0.0
2014-Aug-10 08:32N 46°57' E 032°01'0 0.0
2014-Aug-10 07:32N 46°57' E 032°01'0 0.0
2014-Aug-10 06:32N 46°57' E 032°01'0 0.0
2014-Aug-10 05:32N 46°57' E 032°01'0 0.0
2014-Aug-10 04:32N 46°57' E 032°01'0 0.0
2014-Aug-10 03:31N 46°57' E 032°01'0 0.0
2014-Aug-10 02:31N 46°57' E 032°01'0 0.0
2014-Aug-10 01:31N 46°57' E 032°01'0 0.0
2014-Aug-10 00:31N 46°57' E 032°01'0 0.0
2014-Aug-09 23:31N 46°57' E 032°01'0 0.0
2014-Aug-09 22:31N 46°57' E 032°01'0 0.0
2014-Aug-09 21:31N 46°57' E 032°01'0 0.0
2014-Aug-09 20:31N 46°57' E 032°01'0 0.0
2014-Aug-09 19:31N 46°57' E 032°01'0 0.0
2014-Aug-09 18:31N 46°57' E 032°01'0 0.0
2014-Aug-09 17:31N 46°57' E 032°01'0 0.0
2014-Aug-09 16:31N 46°57' E 032°01'0 0.0
2014-Aug-09 15:31N 46°57' E 032°01'0 0.0
2014-Aug-09 14:31N 46°57' E 032°01'0 0.0
2014-Aug-09 13:31N 46°57' E 032°01'0 0.0
2014-Aug-09 12:31N 46°57' E 032°01'0 0.0
2014-Aug-09 11:31N 46°57' E 032°01'0 0.0
2014-Aug-09 10:31N 46°57' E 032°01'0 0.0
2014-Aug-09 09:31N 46°57' E 032°01'0 0.0
2014-Aug-09 08:28N 46°57' E 032°01'0 0.0
2014-Aug-09 07:31N 46°57' E 032°01'0 0.0
2014-Aug-09 06:31N 46°57' E 032°01'0 0.0
2014-Aug-09 05:31N 46°57' E 032°01'0 0.0
2014-Aug-09 04:31N 46°57' E 032°01'0 0.0
2014-Aug-09 03:31N 46°57' E 032°01'0 0.0
2014-Aug-09 02:31N 46°57' E 032°01'0 0.0
2014-Aug-09 01:31N 46°57' E 032°01'0 0.0
2014-Aug-09 00:31N 46°57' E 032°01'0 0.0
2014-Aug-08 23:31N 46°57' E 032°01'0 0.0
2014-Aug-08 22:31N 46°57' E 032°01'0 0.0
2014-Aug-08 21:31N 46°57' E 032°01'0 0.0
2014-Aug-08 20:31N 46°57' E 032°01'0 0.0
2014-Aug-08 19:31N 46°57' E 032°01'0 0.0
2014-Aug-08 18:31N 46°57' E 032°01'0 0.0
2014-Aug-08 17:31N 46°57' E 032°01'0 0.0
2014-Aug-08 16:34N 46°57' E 032°01'0 0.0
2014-Aug-08 15:33N 46°57' E 032°01'0 0.0
2014-Aug-08 14:33N 46°57' E 032°01'0 0.0
2014-Aug-08 13:33N 46°57' E 032°01'0 0.0
2014-Aug-08 12:33N 46°57' E 032°01'0 0.0
2014-Aug-08 11:33N 46°57' E 032°01'0 0.0
2014-Aug-08 10:33N 46°57' E 032°01'0 0.0
2014-Aug-08 09:33N 46°57' E 032°01'  

Dump ship's entire track history